sensor_id;sensor_type;location;lat;lon;timestamp;P1;durP1;ratioP1;P2;durP2;ratioP2
5465;SDS011;2755;50.728;7.108;2023-03-14T00:02:16;4.13;;;1.23;;
5465;SDS011;2755;50.728;7.108;2023-03-14T00:04:42;2.87;;;1.20;;
5465;SDS011;2755;50.728;7.108;2023-03-14T00:07:09;8.23;;;1.67;;
5465;SDS011;2755;50.728;7.108;2023-03-14T00:09:36;4.20;;;1.10;;
5465;SDS011;2755;50.728;7.108;2023-03-14T00:12:01;3.50;;;1.47;;
5465;SDS011;2755;50.728;7.108;2023-03-14T00:14:28;3.90;;;1.37;;
5465;SDS011;2755;50.728;7.108;2023-03-14T00:16:54;7.90;;;1.23;;
5465;SDS011;2755;50.728;7.108;2023-03-14T00:19:19;2.90;;;1.30;;
5465;SDS011;2755;50.728;7.108;2023-03-14T00:21:45;5.70;;;1.53;;
5465;SDS011;2755;50.728;7.108;2023-03-14T00:24:11;12.20;;;2.13;;
5465;SDS011;2755;50.728;7.108;2023-03-14T00:26:36;7.00;;;1.50;;
5465;SDS011;2755;50.728;7.108;2023-03-14T00:29:02;9.10;;;1.60;;
5465;SDS011;2755;50.728;7.108;2023-03-14T00:31:28;10.27;;;2.23;;
5465;SDS011;2755;50.728;7.108;2023-03-14T00:33:54;4.07;;;1.40;;
5465;SDS011;2755;50.728;7.108;2023-03-14T00:36:19;10.13;;;1.67;;
5465;SDS011;2755;50.728;7.108;2023-03-14T00:38:47;5.83;;;1.47;;
5465;SDS011;2755;50.728;7.108;2023-03-14T00:41:15;2.33;;;1.03;;
5465;SDS011;2755;50.728;7.108;2023-03-14T00:43:42;2.50;;;1.00;;
5465;SDS011;2755;50.728;7.108;2023-03-14T00:46:08;7.87;;;1.53;;
5465;SDS011;2755;50.728;7.108;2023-03-14T00:48:34;4.73;;;1.70;;
5465;SDS011;2755;50.728;7.108;2023-03-14T00:51:00;5.57;;;1.60;;
5465;SDS011;2755;50.728;7.108;2023-03-14T00:53:27;3.87;;;1.23;;
5465;SDS011;2755;50.728;7.108;2023-03-14T00:55:53;3.33;;;1.70;;
5465;SDS011;2755;50.728;7.108;2023-03-14T00:58:18;4.87;;;1.13;;
5465;SDS011;2755;50.728;7.108;2023-03-14T01:00:44;4.30;;;1.50;;
5465;SDS011;2755;50.728;7.108;2023-03-14T01:03:11;14.70;;;1.70;;
5465;SDS011;2755;50.728;7.108;2023-03-14T01:05:38;6.67;;;1.33;;
5465;SDS011;2755;50.728;7.108;2023-03-14T01:08:04;6.20;;;1.30;;
5465;SDS011;2755;50.728;7.108;2023-03-14T01:10:30;5.07;;;1.03;;
5465;SDS011;2755;50.728;7.108;2023-03-14T01:12:56;7.63;;;1.60;;
5465;SDS011;2755;50.728;7.108;2023-03-14T01:15:21;7.70;;;1.20;;
5465;SDS011;2755;50.728;7.108;2023-03-14T01:17:47;2.80;;;1.30;;
5465;SDS011;2755;50.728;7.108;2023-03-14T01:20:14;4.80;;;1.10;;
5465;SDS011;2755;50.728;7.108;2023-03-14T01:22:41;5.03;;;1.10;;
5465;SDS011;2755;50.728;7.108;2023-03-14T01:25:09;7.80;;;1.70;;
5465;SDS011;2755;50.728;7.108;2023-03-14T01:27:40;3.20;;;1.03;;
5465;SDS011;2755;50.728;7.108;2023-03-14T01:30:05;4.27;;;1.20;;
5465;SDS011;2755;50.728;7.108;2023-03-14T01:32:32;8.33;;;2.00;;
5465;SDS011;2755;50.728;7.108;2023-03-14T01:34:59;2.13;;;1.40;;
5465;SDS011;2755;50.728;7.108;2023-03-14T01:37:24;7.13;;;1.60;;
5465;SDS011;2755;50.728;7.108;2023-03-14T01:39:50;6.20;;;1.77;;
5465;SDS011;2755;50.728;7.108;2023-03-14T01:42:16;3.87;;;1.53;;
5465;SDS011;2755;50.728;7.108;2023-03-14T01:44:56;8.50;;;1.90;;
5465;SDS011;2755;50.728;7.108;2023-03-14T01:47:23;2.63;;;1.40;;
5465;SDS011;2755;50.728;7.108;2023-03-14T01:52:29;9.20;;;1.43;;
5465;SDS011;2755;50.728;7.108;2023-03-14T01:55:21;3.33;;;1.40;;
5465;SDS011;2755;50.728;7.108;2023-03-14T01:57:54;4.77;;;1.70;;
5465;SDS011;2755;50.728;7.108;2023-03-14T02:00:23;3.90;;;1.47;;
5465;SDS011;2755;50.728;7.108;2023-03-14T02:02:50;4.67;;;1.30;;
5465;SDS011;2755;50.728;7.108;2023-03-14T02:05:34;5.17;;;1.60;;
5465;SDS011;2755;50.728;7.108;2023-03-14T02:08:03;3.50;;;1.13;;
5465;SDS011;2755;50.728;7.108;2023-03-14T02:10:32;6.37;;;1.37;;
5465;SDS011;2755;50.728;7.108;2023-03-14T02:13:00;4.80;;;1.20;;
5465;SDS011;2755;50.728;7.108;2023-03-14T02:15:28;7.03;;;1.57;;
5465;SDS011;2755;50.728;7.108;2023-03-14T02:17:54;9.27;;;1.90;;
5465;SDS011;2755;50.728;7.108;2023-03-14T02:20:26;6.67;;;1.50;;
5465;SDS011;2755;50.728;7.108;2023-03-14T02:23:00;7.63;;;1.70;;
5465;SDS011;2755;50.728;7.108;2023-03-14T02:25:39;4.90;;;1.57;;
5465;SDS011;2755;50.728;7.108;2023-03-14T02:28:12;5.37;;;1.30;;
5465;SDS011;2755;50.728;7.108;2023-03-14T02:30:38;8.27;;;1.40;;
5465;SDS011;2755;50.728;7.108;2023-03-14T02:35:32;4.63;;;1.80;;
5465;SDS011;2755;50.728;7.108;2023-03-14T02:38:18;7.37;;;1.50;;
5465;SDS011;2755;50.728;7.108;2023-03-14T02:40:48;3.27;;;1.70;;
5465;SDS011;2755;50.728;7.108;2023-03-14T02:43:14;9.00;;;1.60;;
5465;SDS011;2755;50.728;7.108;2023-03-14T02:45:40;6.60;;;1.60;;
5465;SDS011;2755;50.728;7.108;2023-03-14T02:48:13;4.43;;;1.40;;
5465;SDS011;2755;50.728;7.108;2023-03-14T02:50:39;6.03;;;1.67;;
5465;SDS011;2755;50.728;7.108;2023-03-14T02:53:05;5.40;;;2.03;;
5465;SDS011;2755;50.728;7.108;2023-03-14T02:55:31;6.77;;;2.00;;
5465;SDS011;2755;50.728;7.108;2023-03-14T02:57:56;7.47;;;1.37;;
5465;SDS011;2755;50.728;7.108;2023-03-14T03:00:22;5.23;;;1.63;;
5465;SDS011;2755;50.728;7.108;2023-03-14T03:02:47;14.10;;;2.30;;
5465;SDS011;2755;50.728;7.108;2023-03-14T03:05:13;6.50;;;1.20;;
5465;SDS011;2755;50.728;7.108;2023-03-14T03:07:39;7.40;;;1.80;;
5465;SDS011;2755;50.728;7.108;2023-03-14T03:10:05;8.03;;;1.97;;
5465;SDS011;2755;50.728;7.108;2023-03-14T03:12:31;9.60;;;1.70;;
5465;SDS011;2755;50.728;7.108;2023-03-14T03:14:56;6.07;;;1.73;;
5465;SDS011;2755;50.728;7.108;2023-03-14T03:17:22;14.07;;;1.97;;
5465;SDS011;2755;50.728;7.108;2023-03-14T03:19:48;5.57;;;1.90;;
5465;SDS011;2755;50.728;7.108;2023-03-14T03:22:14;7.03;;;1.70;;
5465;SDS011;2755;50.728;7.108;2023-03-14T03:24:39;9.17;;;1.67;;
5465;SDS011;2755;50.728;7.108;2023-03-14T03:27:05;3.40;;;1.60;;
5465;SDS011;2755;50.728;7.108;2023-03-14T03:29:31;9.53;;;1.77;;
5465;SDS011;2755;50.728;7.108;2023-03-14T03:31:56;11.03;;;2.03;;
5465;SDS011;2755;50.728;7.108;2023-03-14T03:34:22;7.73;;;1.70;;
5465;SDS011;2755;50.728;7.108;2023-03-14T03:36:47;10.07;;;1.53;;
5465;SDS011;2755;50.728;7.108;2023-03-14T03:39:13;7.60;;;1.93;;
5465;SDS011;2755;50.728;7.108;2023-03-14T03:41:39;10.53;;;2.03;;
5465;SDS011;2755;50.728;7.108;2023-03-14T03:44:04;4.57;;;1.30;;
5465;SDS011;2755;50.728;7.108;2023-03-14T03:46:30;4.23;;;1.40;;
5465;SDS011;2755;50.728;7.108;2023-03-14T03:48:57;4.80;;;1.10;;
5465;SDS011;2755;50.728;7.108;2023-03-14T03:51:24;5.90;;;1.93;;
5465;SDS011;2755;50.728;7.108;2023-03-14T03:53:50;8.13;;;1.43;;
5465;SDS011;2755;50.728;7.108;2023-03-14T03:56:15;7.70;;;1.37;;
5465;SDS011;2755;50.728;7.108;2023-03-14T03:58:41;7.80;;;1.63;;
5465;SDS011;2755;50.728;7.108;2023-03-14T04:01:07;3.60;;;1.60;;
5465;SDS011;2755;50.728;7.108;2023-03-14T04:03:34;5.57;;;1.17;;
5465;SDS011;2755;50.728;7.108;2023-03-14T04:06:00;7.43;;;1.67;;
5465;SDS011;2755;50.728;7.108;2023-03-14T04:08:27;3.97;;;1.33;;
5465;SDS011;2755;50.728;7.108;2023-03-14T04:10:55;2.07;;;1.10;;
5465;SDS011;2755;50.728;7.108;2023-03-14T04:13:24;2.70;;;1.20;;
5465;SDS011;2755;50.728;7.108;2023-03-14T04:15:50;4.23;;;1.03;;
5465;SDS011;2755;50.728;7.108;2023-03-14T04:18:16;5.07;;;1.37;;
5465;SDS011;2755;50.728;7.108;2023-03-14T04:20:42;2.43;;;1.20;;
5465;SDS011;2755;50.728;7.108;2023-03-14T04:23:08;9.50;;;1.37;;
5465;SDS011;2755;50.728;7.108;2023-03-14T04:25:33;3.20;;;1.60;;
5465;SDS011;2755;50.728;7.108;2023-03-14T04:27:59;3.83;;;1.10;;
5465;SDS011;2755;50.728;7.108;2023-03-14T04:30:24;8.00;;;1.50;;
5465;SDS011;2755;50.728;7.108;2023-03-14T04:32:50;5.80;;;1.10;;
5465;SDS011;2755;50.728;7.108;2023-03-14T04:35:16;6.40;;;1.03;;
5465;SDS011;2755;50.728;7.108;2023-03-14T04:37:42;5.33;;;1.70;;
5465;SDS011;2755;50.728;7.108;2023-03-14T04:40:08;1.77;;;0.97;;
5465;SDS011;2755;50.728;7.108;2023-03-14T04:42:35;7.50;;;1.33;;
5465;SDS011;2755;50.728;7.108;2023-03-14T04:45:01;4.97;;;0.87;;
5465;SDS011;2755;50.728;7.108;2023-03-14T04:47:26;2.20;;;1.17;;
5465;SDS011;2755;50.728;7.108;2023-03-14T04:49:52;5.63;;;1.17;;
5465;SDS011;2755;50.728;7.108;2023-03-14T04:52:18;1.47;;;0.70;;
5465;SDS011;2755;50.728;7.108;2023-03-14T04:54:44;1.73;;;0.90;;
5465;SDS011;2755;50.728;7.108;2023-03-14T04:57:09;7.70;;;1.47;;
5465;SDS011;2755;50.728;7.108;2023-03-14T04:59:35;2.73;;;0.87;;
5465;SDS011;2755;50.728;7.108;2023-03-14T05:02:00;1.83;;;0.80;;
5465;SDS011;2755;50.728;7.108;2023-03-14T05:04:26;4.97;;;1.00;;
5465;SDS011;2755;50.728;7.108;2023-03-14T05:06:51;1.93;;;0.80;;
5465;SDS011;2755;50.728;7.108;2023-03-14T05:09:17;2.60;;;0.80;;
5465;SDS011;2755;50.728;7.108;2023-03-14T05:11:43;2.57;;;0.80;;
5465;SDS011;2755;50.728;7.108;2023-03-14T05:14:08;1.40;;;0.80;;
5465;SDS011;2755;50.728;7.108;2023-03-14T05:16:34;3.37;;;0.70;;
5465;SDS011;2755;50.728;7.108;2023-03-14T05:18:59;1.17;;;0.77;;
5465;SDS011;2755;50.728;7.108;2023-03-14T05:21:26;0.77;;;0.60;;
5465;SDS011;2755;50.728;7.108;2023-03-14T05:23:52;1.33;;;0.90;;
5465;SDS011;2755;50.728;7.108;2023-03-14T05:26:17;1.40;;;0.80;;
5465;SDS011;2755;50.728;7.108;2023-03-14T05:28:43;1.00;;;0.70;;
5465;SDS011;2755;50.728;7.108;2023-03-14T05:31:09;1.30;;;1.00;;
5465;SDS011;2755;50.728;7.108;2023-03-14T05:33:35;1.80;;;0.53;;
5465;SDS011;2755;50.728;7.108;2023-03-14T05:36:00;0.70;;;0.60;;
5465;SDS011;2755;50.728;7.108;2023-03-14T05:38:26;0.90;;;0.80;;
5465;SDS011;2755;50.728;7.108;2023-03-14T05:40:52;1.83;;;0.63;;
5465;SDS011;2755;50.728;7.108;2023-03-14T05:43:17;4.30;;;0.80;;
5465;SDS011;2755;50.728;7.108;2023-03-14T05:45:43;0.70;;;0.60;;
5465;SDS011;2755;50.728;7.108;2023-03-14T05:48:08;1.30;;;0.70;;
5465;SDS011;2755;50.728;7.108;2023-03-14T05:50:34;0.80;;;0.70;;
5465;SDS011;2755;50.728;7.108;2023-03-14T05:53:00;0.60;;;0.60;;
5465;SDS011;2755;50.728;7.108;2023-03-14T05:55:25;1.13;;;0.63;;
5465;SDS011;2755;50.728;7.108;2023-03-14T05:57:52;0.70;;;0.70;;
5465;SDS011;2755;50.728;7.108;2023-03-14T06:00:18;0.70;;;0.53;;
5465;SDS011;2755;50.728;7.108;2023-03-14T06:02:44;2.53;;;0.90;;
5465;SDS011;2755;50.728;7.108;2023-03-14T06:05:10;1.50;;;0.67;;
5465;SDS011;2755;50.728;7.108;2023-03-14T06:07:35;1.33;;;0.70;;
5465;SDS011;2755;50.728;7.108;2023-03-14T06:10:01;0.80;;;0.70;;
5465;SDS011;2755;50.728;7.108;2023-03-14T06:12:27;0.83;;;0.60;;
5465;SDS011;2755;50.728;7.108;2023-03-14T06:14:53;0.70;;;0.60;;
5465;SDS011;2755;50.728;7.108;2023-03-14T06:17:19;0.70;;;0.53;;
5465;SDS011;2755;50.728;7.108;2023-03-14T06:19:44;0.80;;;0.60;;
5465;SDS011;2755;50.728;7.108;2023-03-14T06:22:10;0.93;;;0.60;;
5465;SDS011;2755;50.728;7.108;2023-03-14T06:24:35;1.07;;;0.70;;
5465;SDS011;2755;50.728;7.108;2023-03-14T06:27:01;0.70;;;0.60;;
5465;SDS011;2755;50.728;7.108;2023-03-14T06:29:28;1.00;;;0.70;;
5465;SDS011;2755;50.728;7.108;2023-03-14T06:31:54;2.03;;;0.70;;
5465;SDS011;2755;50.728;7.108;2023-03-14T06:34:20;0.70;;;0.53;;
5465;SDS011;2755;50.728;7.108;2023-03-14T06:36:46;1.03;;;0.60;;
5465;SDS011;2755;50.728;7.108;2023-03-14T06:39:12;0.63;;;0.60;;
5465;SDS011;2755;50.728;7.108;2023-03-14T06:41:37;0.70;;;0.60;;
5465;SDS011;2755;50.728;7.108;2023-03-14T06:44:03;0.90;;;0.80;;
5465;SDS011;2755;50.728;7.108;2023-03-14T06:46:29;0.87;;;0.57;;
5465;SDS011;2755;50.728;7.108;2023-03-14T06:48:55;0.60;;;0.60;;
5465;SDS011;2755;50.728;7.108;2023-03-14T06:51:21;1.90;;;0.50;;
5465;SDS011;2755;50.728;7.108;2023-03-14T06:53:46;1.00;;;0.73;;
5465;SDS011;2755;50.728;7.108;2023-03-14T06:56:12;0.70;;;0.70;;
5465;SDS011;2755;50.728;7.108;2023-03-14T06:58:38;1.23;;;0.90;;
5465;SDS011;2755;50.728;7.108;2023-03-14T07:01:03;1.10;;;0.60;;
5465;SDS011;2755;50.728;7.108;2023-03-14T07:03:29;0.60;;;0.57;;
5465;SDS011;2755;50.728;7.108;2023-03-14T07:05:55;0.80;;;0.53;;
5465;SDS011;2755;50.728;7.108;2023-03-14T07:08:20;0.60;;;0.57;;
5465;SDS011;2755;50.728;7.108;2023-03-14T07:10:46;1.00;;;0.50;;
5465;SDS011;2755;50.728;7.108;2023-03-14T07:13:11;0.90;;;0.50;;
5465;SDS011;2755;50.728;7.108;2023-03-14T07:15:37;0.83;;;0.60;;
5465;SDS011;2755;50.728;7.108;2023-03-14T07:18:03;1.37;;;0.50;;
5465;SDS011;2755;50.728;7.108;2023-03-14T07:20:28;0.70;;;0.50;;
5465;SDS011;2755;50.728;7.108;2023-03-14T07:22:57;1.13;;;0.60;;
5465;SDS011;2755;50.728;7.108;2023-03-14T07:25:24;3.20;;;0.50;;
5465;SDS011;2755;50.728;7.108;2023-03-14T07:27:50;0.70;;;0.50;;
5465;SDS011;2755;50.728;7.108;2023-03-14T07:30:17;0.60;;;0.40;;
5465;SDS011;2755;50.728;7.108;2023-03-14T07:32:43;0.60;;;0.47;;
5465;SDS011;2755;50.728;7.108;2023-03-14T07:35:09;0.60;;;0.40;;
5465;SDS011;2755;50.728;7.108;2023-03-14T07:37:34;0.70;;;0.50;;
5465;SDS011;2755;50.728;7.108;2023-03-14T07:40:00;0.70;;;0.67;;
5465;SDS011;2755;50.728;7.108;2023-03-14T07:42:26;0.80;;;0.60;;
5465;SDS011;2755;50.728;7.108;2023-03-14T07:44:51;1.43;;;0.60;;
5465;SDS011;2755;50.728;7.108;2023-03-14T07:47:17;2.30;;;0.50;;
5465;SDS011;2755;50.728;7.108;2023-03-14T07:49:43;1.27;;;0.40;;
5465;SDS011;2755;50.728;7.108;2023-03-14T07:52:09;0.70;;;0.43;;
5465;SDS011;2755;50.728;7.108;2023-03-14T07:54:34;1.67;;;0.50;;
5465;SDS011;2755;50.728;7.108;2023-03-14T07:57:01;0.90;;;0.40;;
5465;SDS011;2755;50.728;7.108;2023-03-14T07:59:27;0.60;;;0.40;;
5465;SDS011;2755;50.728;7.108;2023-03-14T08:01:52;0.60;;;0.40;;
5465;SDS011;2755;50.728;7.108;2023-03-14T08:04:18;0.60;;;0.40;;
5465;SDS011;2755;50.728;7.108;2023-03-14T08:06:44;0.87;;;0.40;;
5465;SDS011;2755;50.728;7.108;2023-03-14T08:09:09;3.50;;;0.40;;
5465;SDS011;2755;50.728;7.108;2023-03-14T08:11:36;2.50;;;0.40;;
5465;SDS011;2755;50.728;7.108;2023-03-14T08:14:01;0.60;;;0.40;;
5465;SDS011;2755;50.728;7.108;2023-03-14T08:16:27;0.70;;;0.60;;
5465;SDS011;2755;50.728;7.108;2023-03-14T08:18:53;0.90;;;0.50;;
5465;SDS011;2755;50.728;7.108;2023-03-14T08:21:19;0.60;;;0.30;;
5465;SDS011;2755;50.728;7.108;2023-03-14T08:23:44;0.60;;;0.40;;
5465;SDS011;2755;50.728;7.108;2023-03-14T08:26:10;0.70;;;0.50;;
5465;SDS011;2755;50.728;7.108;2023-03-14T08:28:36;0.60;;;0.40;;
5465;SDS011;2755;50.728;7.108;2023-03-14T08:31:01;0.60;;;0.30;;
5465;SDS011;2755;50.728;7.108;2023-03-14T08:33:28;1.20;;;0.40;;
5465;SDS011;2755;50.728;7.108;2023-03-14T08:35:55;1.43;;;0.40;;
5465;SDS011;2755;50.728;7.108;2023-03-14T08:38:22;0.60;;;0.40;;
5465;SDS011;2755;50.728;7.108;2023-03-14T08:40:47;0.83;;;0.53;;
5465;SDS011;2755;50.728;7.108;2023-03-14T08:43:14;0.60;;;0.40;;
5465;SDS011;2755;50.728;7.108;2023-03-14T08:45:40;0.97;;;0.60;;
5465;SDS011;2755;50.728;7.108;2023-03-14T08:48:05;0.63;;;0.50;;
5465;SDS011;2755;50.728;7.108;2023-03-14T08:50:31;0.60;;;0.40;;
5465;SDS011;2755;50.728;7.108;2023-03-14T08:52:57;0.97;;;0.47;;
5465;SDS011;2755;50.728;7.108;2023-03-14T08:55:24;0.60;;;0.40;;
5465;SDS011;2755;50.728;7.108;2023-03-14T08:57:52;0.60;;;0.40;;
5465;SDS011;2755;50.728;7.108;2023-03-14T09:00:18;0.60;;;0.33;;
5465;SDS011;2755;50.728;7.108;2023-03-14T09:02:44;0.70;;;0.50;;
5465;SDS011;2755;50.728;7.108;2023-03-14T09:05:10;0.60;;;0.40;;
5465;SDS011;2755;50.728;7.108;2023-03-14T09:07:36;0.70;;;0.60;;
5465;SDS011;2755;50.728;7.108;2023-03-14T09:10:02;0.60;;;0.40;;
5465;SDS011;2755;50.728;7.108;2023-03-14T09:12:31;0.80;;;0.50;;
5465;SDS011;2755;50.728;7.108;2023-03-14T09:14:56;0.60;;;0.40;;
5465;SDS011;2755;50.728;7.108;2023-03-14T09:17:22;1.83;;;0.50;;
5465;SDS011;2755;50.728;7.108;2023-03-14T09:19:47;2.40;;;0.53;;
5465;SDS011;2755;50.728;7.108;2023-03-14T09:22:13;0.90;;;0.50;;
5465;SDS011;2755;50.728;7.108;2023-03-14T09:24:40;0.60;;;0.50;;
5465;SDS011;2755;50.728;7.108;2023-03-14T09:27:06;0.90;;;0.50;;
5465;SDS011;2755;50.728;7.108;2023-03-14T09:29:32;1.47;;;0.77;;
5465;SDS011;2755;50.728;7.108;2023-03-14T09:31:58;1.27;;;0.70;;
5465;SDS011;2755;50.728;7.108;2023-03-14T09:34:24;0.73;;;0.60;;
5465;SDS011;2755;50.728;7.108;2023-03-14T09:36:50;0.87;;;0.57;;
5465;SDS011;2755;50.728;7.108;2023-03-14T09:39:16;2.37;;;0.63;;
5465;SDS011;2755;50.728;7.108;2023-03-14T09:41:46;0.63;;;0.50;;
5465;SDS011;2755;50.728;7.108;2023-03-14T09:44:14;0.80;;;0.50;;
5465;SDS011;2755;50.728;7.108;2023-03-14T09:46:45;4.73;;;0.83;;
5465;SDS011;2755;50.728;7.108;2023-03-14T09:49:37;2.00;;;0.60;;
5465;SDS011;2755;50.728;7.108;2023-03-14T09:52:05;1.40;;;0.80;;
5465;SDS011;2755;50.728;7.108;2023-03-14T09:54:48;0.70;;;0.60;;
5465;SDS011;2755;50.728;7.108;2023-03-14T09:57:20;0.70;;;0.60;;
5465;SDS011;2755;50.728;7.108;2023-03-14T09:59:49;1.10;;;0.90;;
5465;SDS011;2755;50.728;7.108;2023-03-14T10:02:20;2.57;;;1.00;;
5465;SDS011;2755;50.728;7.108;2023-03-14T10:04:48;1.40;;;1.23;;
5465;SDS011;2755;50.728;7.108;2023-03-14T10:07:17;1.57;;;1.40;;
5465;SDS011;2755;50.728;7.108;2023-03-14T10:09:47;5.53;;;1.47;;
5465;SDS011;2755;50.728;7.108;2023-03-14T10:12:14;1.20;;;1.10;;
5465;SDS011;2755;50.728;7.108;2023-03-14T10:14:49;5.27;;;1.60;;
5465;SDS011;2755;50.728;7.108;2023-03-14T10:17:16;3.13;;;1.47;;
5465;SDS011;2755;50.728;7.108;2023-03-14T10:19:51;1.47;;;1.20;;
5465;SDS011;2755;50.728;7.108;2023-03-14T10:22:18;1.20;;;1.10;;
5465;SDS011;2755;50.728;7.108;2023-03-14T10:24:45;2.90;;;1.10;;
5465;SDS011;2755;50.728;7.108;2023-03-14T10:27:19;1.60;;;1.07;;
5465;SDS011;2755;50.728;7.108;2023-03-14T10:29:56;1.67;;;1.10;;
5465;SDS011;2755;50.728;7.108;2023-03-14T10:32:35;1.43;;;1.13;;
5465;SDS011;2755;50.728;7.108;2023-03-14T10:40:21;2.10;;;1.20;;
5465;SDS011;2755;50.728;7.108;2023-03-14T10:42:49;3.20;;;1.20;;
5465;SDS011;2755;50.728;7.108;2023-03-14T10:47:58;1.80;;;1.50;;
5465;SDS011;2755;50.728;7.108;2023-03-14T10:50:31;1.97;;;1.40;;
5465;SDS011;2755;50.728;7.108;2023-03-14T10:52:57;1.83;;;1.57;;
5465;SDS011;2755;50.728;7.108;2023-03-14T10:55:39;3.37;;;2.80;;
5465;SDS011;2755;50.728;7.108;2023-03-14T10:58:23;3.10;;;1.40;;
5465;SDS011;2755;50.728;7.108;2023-03-14T11:00:57;1.97;;;1.50;;
5465;SDS011;2755;50.728;7.108;2023-03-14T11:03:27;2.97;;;1.47;;
5465;SDS011;2755;50.728;7.108;2023-03-14T11:05:57;1.67;;;1.57;;
5465;SDS011;2755;50.728;7.108;2023-03-14T11:11:07;2.23;;;1.43;;
5465;SDS011;2755;50.728;7.108;2023-03-14T11:13:37;1.47;;;1.10;;
5465;SDS011;2755;50.728;7.108;2023-03-14T11:24:41;1.60;;;1.20;;
5465;SDS011;2755;50.728;7.108;2023-03-14T11:27:22;4.80;;;1.80;;
5465;SDS011;2755;50.728;7.108;2023-03-14T11:29:54;2.50;;;1.40;;
5465;SDS011;2755;50.728;7.108;2023-03-14T11:34:50;3.63;;;1.70;;
5465;SDS011;2755;50.728;7.108;2023-03-14T11:39:49;1.50;;;1.13;;
5465;SDS011;2755;50.728;7.108;2023-03-14T11:42:42;3.83;;;1.17;;
5465;SDS011;2755;50.728;7.108;2023-03-14T11:45:18;4.83;;;1.40;;
5465;SDS011;2755;50.728;7.108;2023-03-14T11:47:50;2.27;;;1.20;;
5465;SDS011;2755;50.728;7.108;2023-03-14T11:50:28;3.83;;;1.40;;
5465;SDS011;2755;50.728;7.108;2023-03-14T11:55:30;1.53;;;0.80;;
5465;SDS011;2755;50.728;7.108;2023-03-14T11:58:00;2.50;;;1.17;;
5465;SDS011;2755;50.728;7.108;2023-03-14T12:00:33;1.23;;;1.13;;
5465;SDS011;2755;50.728;7.108;2023-03-14T12:05:39;6.00;;;1.27;;
5465;SDS011;2755;50.728;7.108;2023-03-14T12:08:17;1.43;;;1.07;;
5465;SDS011;2755;50.728;7.108;2023-03-14T12:11:00;1.60;;;0.97;;
5465;SDS011;2755;50.728;7.108;2023-03-14T12:13:30;2.50;;;1.10;;
5465;SDS011;2755;50.728;7.108;2023-03-14T12:15:59;3.67;;;1.00;;
5465;SDS011;2755;50.728;7.108;2023-03-14T12:18:37;3.03;;;1.00;;
5465;SDS011;2755;50.728;7.108;2023-03-14T12:21:06;1.20;;;0.90;;
5465;SDS011;2755;50.728;7.108;2023-03-14T12:23:41;1.50;;;0.77;;
5465;SDS011;2755;50.728;7.108;2023-03-14T12:28:39;1.17;;;0.87;;
5465;SDS011;2755;50.728;7.108;2023-03-14T12:31:35;1.53;;;1.07;;
5465;SDS011;2755;50.728;7.108;2023-03-14T12:34:24;1.17;;;0.80;;
5465;SDS011;2755;50.728;7.108;2023-03-14T12:42:10;2.60;;;1.70;;
5465;SDS011;2755;50.728;7.108;2023-03-14T12:44:49;2.27;;;1.50;;
5465;SDS011;2755;50.728;7.108;2023-03-14T12:49:44;1.43;;;1.13;;
5465;SDS011;2755;50.728;7.108;2023-03-14T12:52:16;3.03;;;1.70;;
5465;SDS011;2755;50.728;7.108;2023-03-14T12:59:51;2.30;;;1.83;;
5465;SDS011;2755;50.728;7.108;2023-03-14T13:02:23;1.67;;;1.57;;
5465;SDS011;2755;50.728;7.108;2023-03-14T13:05:00;2.50;;;2.30;;
5465;SDS011;2755;50.728;7.108;2023-03-14T13:08:20;2.97;;;2.00;;
5465;SDS011;2755;50.728;7.108;2023-03-14T13:10:29;2.17;;;1.70;;
5465;SDS011;2755;50.728;7.108;2023-03-14T13:12:56;4.20;;;2.10;;
5465;SDS011;2755;50.728;7.108;2023-03-14T13:15:29;3.40;;;2.03;;
5465;SDS011;2755;50.728;7.108;2023-03-14T13:17:56;2.60;;;1.70;;
5465;SDS011;2755;50.728;7.108;2023-03-14T13:23:03;1.87;;;1.30;;
5465;SDS011;2755;50.728;7.108;2023-03-14T13:25:31;1.90;;;1.30;;
5465;SDS011;2755;50.728;7.108;2023-03-14T13:27:58;5.70;;;1.37;;
5465;SDS011;2755;50.728;7.108;2023-03-14T13:30:25;2.80;;;1.00;;
5465;SDS011;2755;50.728;7.108;2023-03-14T13:32:52;1.57;;;1.17;;
5465;SDS011;2755;50.728;7.108;2023-03-14T13:37:56;2.90;;;1.57;;
5465;SDS011;2755;50.728;7.108;2023-03-14T13:40:26;3.60;;;1.80;;
5465;SDS011;2755;50.728;7.108;2023-03-14T13:43:04;3.63;;;2.03;;
5465;SDS011;2755;50.728;7.108;2023-03-14T13:46:23;6.37;;;1.93;;
5465;SDS011;2755;50.728;7.108;2023-03-14T13:48:32;2.10;;;1.50;;
5465;SDS011;2755;50.728;7.108;2023-03-14T13:51:01;1.30;;;1.20;;
5465;SDS011;2755;50.728;7.108;2023-03-14T13:53:28;3.70;;;1.43;;
5465;SDS011;2755;50.728;7.108;2023-03-14T13:55:54;3.83;;;1.20;;
5465;SDS011;2755;50.728;7.108;2023-03-14T13:58:25;6.17;;;1.30;;
5465;SDS011;2755;50.728;7.108;2023-03-14T14:00:57;4.13;;;1.40;;
5465;SDS011;2755;50.728;7.108;2023-03-14T14:03:30;3.87;;;1.77;;
5465;SDS011;2755;50.728;7.108;2023-03-14T14:05:57;2.23;;;1.40;;
5465;SDS011;2755;50.728;7.108;2023-03-14T14:08:24;8.03;;;2.00;;
5465;SDS011;2755;50.728;7.108;2023-03-14T14:10:50;6.60;;;1.90;;
5465;SDS011;2755;50.728;7.108;2023-03-14T14:13:22;2.70;;;1.33;;
5465;SDS011;2755;50.728;7.108;2023-03-14T14:15:50;6.10;;;1.90;;
5465;SDS011;2755;50.728;7.108;2023-03-14T14:18:18;5.00;;;1.90;;
5465;SDS011;2755;50.728;7.108;2023-03-14T14:20:48;4.20;;;1.80;;
5465;SDS011;2755;50.728;7.108;2023-03-14T14:23:16;2.63;;;1.53;;
5465;SDS011;2755;50.728;7.108;2023-03-14T14:25:53;5.57;;;1.80;;
5465;SDS011;2755;50.728;7.108;2023-03-14T14:28:23;7.07;;;1.70;;
5465;SDS011;2755;50.728;7.108;2023-03-14T14:33:52;4.13;;;1.40;;
5465;SDS011;2755;50.728;7.108;2023-03-14T14:36:44;14.83;;;1.87;;
5465;SDS011;2755;50.728;7.108;2023-03-14T14:41:59;13.27;;;2.40;;
5465;SDS011;2755;50.728;7.108;2023-03-14T14:44:28;16.40;;;2.03;;
5465;SDS011;2755;50.728;7.108;2023-03-14T14:46:57;10.03;;;2.60;;
5465;SDS011;2755;50.728;7.108;2023-03-14T14:49:28;4.63;;;1.70;;
5465;SDS011;2755;50.728;7.108;2023-03-14T14:52:00;12.17;;;2.33;;
5465;SDS011;2755;50.728;7.108;2023-03-14T14:54:52;18.90;;;3.13;;
5465;SDS011;2755;50.728;7.108;2023-03-14T14:57:25;6.73;;;2.27;;
5465;SDS011;2755;50.728;7.108;2023-03-14T15:00:03;7.57;;;2.03;;
5465;SDS011;2755;50.728;7.108;2023-03-14T15:02:38;8.30;;;2.10;;
5465;SDS011;2755;50.728;7.108;2023-03-14T15:05:13;9.13;;;3.07;;
5465;SDS011;2755;50.728;7.108;2023-03-14T15:07:40;8.33;;;2.70;;
5465;SDS011;2755;50.728;7.108;2023-03-14T15:10:09;10.63;;;2.50;;
5465;SDS011;2755;50.728;7.108;2023-03-14T15:12:39;13.60;;;2.50;;
5465;SDS011;2755;50.728;7.108;2023-03-14T15:15:05;13.83;;;2.70;;
5465;SDS011;2755;50.728;7.108;2023-03-14T15:17:31;7.67;;;2.70;;
5465;SDS011;2755;50.728;7.108;2023-03-14T15:19:57;7.80;;;2.07;;
5465;SDS011;2755;50.728;7.108;2023-03-14T15:22:23;15.80;;;2.70;;
5465;SDS011;2755;50.728;7.108;2023-03-14T15:24:49;8.23;;;2.60;;
5465;SDS011;2755;50.728;7.108;2023-03-14T15:27:16;7.43;;;2.20;;
5465;SDS011;2755;50.728;7.108;2023-03-14T15:29:42;8.70;;;2.00;;
5465;SDS011;2755;50.728;7.108;2023-03-14T15:32:12;13.23;;;2.23;;
5465;SDS011;2755;50.728;7.108;2023-03-14T15:34:39;7.63;;;2.20;;
5465;SDS011;2755;50.728;7.108;2023-03-14T15:37:10;8.73;;;2.10;;
5465;SDS011;2755;50.728;7.108;2023-03-14T15:39:37;11.70;;;2.20;;
5465;SDS011;2755;50.728;7.108;2023-03-14T15:42:03;24.27;;;2.40;;
5465;SDS011;2755;50.728;7.108;2023-03-14T15:44:29;2.60;;;1.43;;
5465;SDS011;2755;50.728;7.108;2023-03-14T15:46:54;7.10;;;1.70;;
5465;SDS011;2755;50.728;7.108;2023-03-14T15:49:20;10.40;;;1.57;;
5465;SDS011;2755;50.728;7.108;2023-03-14T15:51:46;5.87;;;2.23;;
5465;SDS011;2755;50.728;7.108;2023-03-14T15:54:11;6.73;;;1.70;;
5465;SDS011;2755;50.728;7.108;2023-03-14T15:56:37;6.03;;;1.90;;
5465;SDS011;2755;50.728;7.108;2023-03-14T15:59:03;5.77;;;1.90;;
5465;SDS011;2755;50.728;7.108;2023-03-14T16:01:28;8.33;;;1.80;;
5465;SDS011;2755;50.728;7.108;2023-03-14T16:03:54;6.87;;;2.30;;
5465;SDS011;2755;50.728;7.108;2023-03-14T16:06:20;7.63;;;1.93;;
5465;SDS011;2755;50.728;7.108;2023-03-14T16:08:46;3.17;;;1.50;;
5465;SDS011;2755;50.728;7.108;2023-03-14T16:11:12;6.73;;;1.87;;
5465;SDS011;2755;50.728;7.108;2023-03-14T16:13:39;2.03;;;1.63;;
5465;SDS011;2755;50.728;7.108;2023-03-14T16:16:05;8.00;;;2.00;;
5465;SDS011;2755;50.728;7.108;2023-03-14T16:18:32;6.40;;;1.87;;
5465;SDS011;2755;50.728;7.108;2023-03-14T16:21:02;6.23;;;1.63;;
5465;SDS011;2755;50.728;7.108;2023-03-14T16:23:30;5.23;;;2.30;;